Terminal Aerodrome Forecast
Issued by NWS Wichita, KS

Home | Current Version | Previous Version | Text Only | Print | Product List | Glossary Off
Versions: 1 2 3 4 5 6 7 8 9 10 11 12 13 14 15

000
FTUS43 KICT 032332
TAFICT
TAF
KICT 032332Z 0400/0424 18011KT P6SM SCT060 BKN200
     FM040200 16008KT P6SM SCT100 BKN200
     FM041200 19011KT P6SM VCTS SCT015 BKN050CB
     FM041400 19012KT 5SM TSRA SCT015 BKN050CB
     FM041700 18010KT P6SM BKN060=

USA.gov is the U.S. government's official web portal to all federal, state and local government web resources and services.